sensor_id;sensor_type;location;lat;lon;timestamp;temperature;humidity
9383;DHT22;4731;49.708;10.816;2023-03-22T00:00:35;8.10;99.90
9383;DHT22;4731;49.708;10.816;2023-03-22T00:03:02;8.30;99.90
9383;DHT22;4731;49.708;10.816;2023-03-22T00:05:29;8.30;99.90
9383;DHT22;4731;49.708;10.816;2023-03-22T00:07:55;8.30;99.90
9383;DHT22;4731;49.708;10.816;2023-03-22T00:10:22;8.20;99.90
9383;DHT22;4731;49.708;10.816;2023-03-22T00:12:50;8.10;99.90
9383;DHT22;4731;49.708;10.816;2023-03-22T00:15:17;8.20;99.90
9383;DHT22;4731;49.708;10.816;2023-03-22T00:17:45;8.10;99.90
9383;DHT22;4731;49.708;10.816;2023-03-22T00:20:12;8.10;99.90
9383;DHT22;4731;49.708;10.816;2023-03-22T00:22:38;8.00;99.90
9383;DHT22;4731;49.708;10.816;2023-03-22T00:25:06;7.90;99.90
9383;DHT22;4731;49.708;10.816;2023-03-22T00:27:34;7.80;99.90
9383;DHT22;4731;49.708;10.816;2023-03-22T00:30:02;7.80;99.90
9383;DHT22;4731;49.708;10.816;2023-03-22T00:32:29;7.70;99.90
9383;DHT22;4731;49.708;10.816;2023-03-22T00:34:57;7.70;99.90
9383;DHT22;4731;49.708;10.816;2023-03-22T00:37:23;7.60;99.90
9383;DHT22;4731;49.708;10.816;2023-03-22T00:39:52;7.60;99.90
9383;DHT22;4731;49.708;10.816;2023-03-22T00:42:19;7.50;99.90
9383;DHT22;4731;49.708;10.816;2023-03-22T00:44:45;7.50;99.90
9383;DHT22;4731;49.708;10.816;2023-03-22T00:47:12;7.50;99.90
9383;DHT22;4731;49.708;10.816;2023-03-22T00:49:39;7.50;99.90
9383;DHT22;4731;49.708;10.816;2023-03-22T00:52:07;7.40;99.90
9383;DHT22;4731;49.708;10.816;2023-03-22T00:54:34;7.50;99.90
9383;DHT22;4731;49.708;10.816;2023-03-22T00:57:00;7.50;99.90
9383;DHT22;4731;49.708;10.816;2023-03-22T00:59:27;7.60;99.90
9383;DHT22;4731;49.708;10.816;2023-03-22T01:01:54;7.50;99.90
9383;DHT22;4731;49.708;10.816;2023-03-22T01:04:22;7.60;99.90
9383;DHT22;4731;49.708;10.816;2023-03-22T01:06:50;7.60;99.90
9383;DHT22;4731;49.708;10.816;2023-03-22T01:09:25;7.60;99.90
9383;DHT22;4731;49.708;10.816;2023-03-22T01:11:56;7.60;99.90
9383;DHT22;4731;49.708;10.816;2023-03-22T01:14:23;7.60;99.90
9383;DHT22;4731;49.708;10.816;2023-03-22T01:16:50;7.50;99.90
9383;DHT22;4731;49.708;10.816;2023-03-22T01:19:19;7.40;99.90
9383;DHT22;4731;49.708;10.816;2023-03-22T01:21:46;7.30;99.90
9383;DHT22;4731;49.708;10.816;2023-03-22T01:24:12;7.30;99.90
9383;DHT22;4731;49.708;10.816;2023-03-22T01:26:41;5.40;99.90
9383;DHT22;4731;49.708;10.816;2023-03-22T01:29:08;7.20;99.90
9383;DHT22;4731;49.708;10.816;2023-03-22T01:31:34;7.10;99.90
9383;DHT22;4731;49.708;10.816;2023-03-22T01:34:01;7.00;99.90
9383;DHT22;4731;49.708;10.816;2023-03-22T01:36:28;6.90;99.90
9383;DHT22;4731;49.708;10.816;2023-03-22T01:38:54;6.90;99.90
9383;DHT22;4731;49.708;10.816;2023-03-22T01:41:21;6.90;99.90
9383;DHT22;4731;49.708;10.816;2023-03-22T01:44:07;6.80;99.90
9383;DHT22;4731;49.708;10.816;2023-03-22T01:46:34;6.80;99.90
9383;DHT22;4731;49.708;10.816;2023-03-22T01:49:02;6.70;99.90
9383;DHT22;4731;49.708;10.816;2023-03-22T01:51:30;6.70;99.90
9383;DHT22;4731;49.708;10.816;2023-03-22T01:54:00;6.70;99.90
9383;DHT22;4731;49.708;10.816;2023-03-22T01:56:31;6.60;99.90
9383;DHT22;4731;49.708;10.816;2023-03-22T01:58:58;6.60;99.90
9383;DHT22;4731;49.708;10.816;2023-03-22T02:01:27;6.50;99.90
9383;DHT22;4731;49.708;10.816;2023-03-22T02:03:56;6.50;99.90
9383;DHT22;4731;49.708;10.816;2023-03-22T02:06:24;6.40;99.90
9383;DHT22;4731;49.708;10.816;2023-03-22T02:08:54;8.50;99.90
9383;DHT22;4731;49.708;10.816;2023-03-22T02:11:27;4.20;99.90
9383;DHT22;4731;49.708;10.816;2023-03-22T02:14:16;6.20;99.90
9383;DHT22;4731;49.708;10.816;2023-03-22T02:16:57;6.20;99.90
9383;DHT22;4731;49.708;10.816;2023-03-22T02:19:46;6.20;99.90
9383;DHT22;4731;49.708;10.816;2023-03-22T02:25:36;6.00;99.90
9383;DHT22;4731;49.708;10.816;2023-03-22T02:28:29;5.90;99.90
9383;DHT22;4731;49.708;10.816;2023-03-22T02:31:10;5.90;99.90
9383;DHT22;4731;49.708;10.816;2023-03-22T02:39:50;5.80;99.90
9383;DHT22;4731;49.708;10.816;2023-03-22T02:42:29;5.80;99.90
9383;DHT22;4731;49.708;10.816;2023-03-22T02:45:02;5.80;99.90
9383;DHT22;4731;49.708;10.816;2023-03-22T02:47:38;5.80;99.90
9383;DHT22;4731;49.708;10.816;2023-03-22T02:50:10;5.70;99.90
9383;DHT22;4731;49.708;10.816;2023-03-22T02:52:42;5.60;99.90
9383;DHT22;4731;49.708;10.816;2023-03-22T02:55:16;5.60;99.90
9383;DHT22;4731;49.708;10.816;2023-03-22T02:57:47;5.70;99.90
9383;DHT22;4731;49.708;10.816;2023-03-22T03:00:16;5.70;99.90
9383;DHT22;4731;49.708;10.816;2023-03-22T03:02:48;5.60;99.90
9383;DHT22;4731;49.708;10.816;2023-03-22T03:05:17;5.60;99.90
9383;DHT22;4731;49.708;10.816;2023-03-22T03:07:49;5.70;99.90
9383;DHT22;4731;49.708;10.816;2023-03-22T03:10:18;5.70;99.90
9383;DHT22;4731;49.708;10.816;2023-03-22T03:12:46;5.60;99.90
9383;DHT22;4731;49.708;10.816;2023-03-22T03:15:15;5.60;99.90
9383;DHT22;4731;49.708;10.816;2023-03-22T03:17:52;5.60;99.90
9383;DHT22;4731;49.708;10.816;2023-03-22T03:20:27;5.60;99.90
9383;DHT22;4731;49.708;10.816;2023-03-22T03:23:07;5.60;99.90
9383;DHT22;4731;49.708;10.816;2023-03-22T03:25:45;5.50;99.90
9383;DHT22;4731;49.708;10.816;2023-03-22T03:28:18;5.50;99.90
9383;DHT22;4731;49.708;10.816;2023-03-22T03:30:58;5.50;99.90
9383;DHT22;4731;49.708;10.816;2023-03-22T03:33:28;5.40;99.90
9383;DHT22;4731;49.708;10.816;2023-03-22T03:36:00;5.50;99.90
9383;DHT22;4731;49.708;10.816;2023-03-22T03:38:29;5.40;99.90
9383;DHT22;4731;49.708;10.816;2023-03-22T03:41:01;5.40;99.90
9383;DHT22;4731;49.708;10.816;2023-03-22T03:43:28;5.40;99.90
9383;DHT22;4731;49.708;10.816;2023-03-22T03:45:55;5.30;99.90
9383;DHT22;4731;49.708;10.816;2023-03-22T03:48:25;5.20;99.90
9383;DHT22;4731;49.708;10.816;2023-03-22T03:50:53;5.20;99.90
9383;DHT22;4731;49.708;10.816;2023-03-22T03:53:22;5.20;99.90
9383;DHT22;4731;49.708;10.816;2023-03-22T03:55:48;5.20;99.90
9383;DHT22;4731;49.708;10.816;2023-03-22T03:58:17;5.30;99.90
9383;DHT22;4731;49.708;10.816;2023-03-22T04:00:45;5.30;99.90
9383;DHT22;4731;49.708;10.816;2023-03-22T04:03:12;5.30;99.90
9383;DHT22;4731;49.708;10.816;2023-03-22T04:05:39;5.30;99.90
9383;DHT22;4731;49.708;10.816;2023-03-22T04:08:06;5.10;99.90
9383;DHT22;4731;49.708;10.816;2023-03-22T04:10:33;5.00;99.90
9383;DHT22;4731;49.708;10.816;2023-03-22T04:13:00;5.00;99.90
9383;DHT22;4731;49.708;10.816;2023-03-22T04:15:28;4.90;99.90
9383;DHT22;4731;49.708;10.816;2023-03-22T04:17:55;4.80;99.90
9383;DHT22;4731;49.708;10.816;2023-03-22T04:20:22;4.70;99.90
9383;DHT22;4731;49.708;10.816;2023-03-22T04:22:50;4.60;99.90
9383;DHT22;4731;49.708;10.816;2023-03-22T04:25:17;4.50;99.90
9383;DHT22;4731;49.708;10.816;2023-03-22T04:27:47;4.40;99.90
9383;DHT22;4731;49.708;10.816;2023-03-22T04:30:16;4.20;99.90
9383;DHT22;4731;49.708;10.816;2023-03-22T04:32:46;4.20;99.90
9383;DHT22;4731;49.708;10.816;2023-03-22T04:35:13;4.20;99.90
9383;DHT22;4731;49.708;10.816;2023-03-22T04:37:40;4.20;99.90
9383;DHT22;4731;49.708;10.816;2023-03-22T04:40:08;4.20;99.90
9383;DHT22;4731;49.708;10.816;2023-03-22T04:42:41;4.20;99.90
9383;DHT22;4731;49.708;10.816;2023-03-22T04:45:08;4.20;99.90
9383;DHT22;4731;49.708;10.816;2023-03-22T04:47:35;4.20;99.90
9383;DHT22;4731;49.708;10.816;2023-03-22T04:50:04;4.20;99.90
9383;DHT22;4731;49.708;10.816;2023-03-22T04:52:31;4.20;99.90
9383;DHT22;4731;49.708;10.816;2023-03-22T04:54:57;4.30;99.90
9383;DHT22;4731;49.708;10.816;2023-03-22T04:57:25;4.30;99.90
9383;DHT22;4731;49.708;10.816;2023-03-22T04:59:52;4.30;99.90
9383;DHT22;4731;49.708;10.816;2023-03-22T05:02:19;4.20;99.90
9383;DHT22;4731;49.708;10.816;2023-03-22T05:04:46;4.20;99.90
9383;DHT22;4731;49.708;10.816;2023-03-22T05:07:14;4.10;99.90
9383;DHT22;4731;49.708;10.816;2023-03-22T05:09:40;4.10;99.90
9383;DHT22;4731;49.708;10.816;2023-03-22T05:12:07;4.10;99.90
9383;DHT22;4731;49.708;10.816;2023-03-22T05:14:34;4.20;99.90
9383;DHT22;4731;49.708;10.816;2023-03-22T05:17:00;4.10;99.90
9383;DHT22;4731;49.708;10.816;2023-03-22T05:19:28;4.10;99.90
9383;DHT22;4731;49.708;10.816;2023-03-22T05:21:54;4.00;99.90
9383;DHT22;4731;49.708;10.816;2023-03-22T05:24:28;4.00;99.90
9383;DHT22;4731;49.708;10.816;2023-03-22T05:26:54;4.10;99.90
9383;DHT22;4731;49.708;10.816;2023-03-22T05:29:25;4.10;99.90
9383;DHT22;4731;49.708;10.816;2023-03-22T05:31:52;4.10;99.90
9383;DHT22;4731;49.708;10.816;2023-03-22T05:34:19;4.10;99.90
9383;DHT22;4731;49.708;10.816;2023-03-22T05:36:46;4.30;99.90
9383;DHT22;4731;49.708;10.816;2023-03-22T05:39:16;4.30;99.90
9383;DHT22;4731;49.708;10.816;2023-03-22T05:41:44;4.30;99.90
9383;DHT22;4731;49.708;10.816;2023-03-22T05:44:10;4.50;99.90
9383;DHT22;4731;49.708;10.816;2023-03-22T05:46:37;4.60;99.90
9383;DHT22;4731;49.708;10.816;2023-03-22T05:49:04;4.70;99.90
9383;DHT22;4731;49.708;10.816;2023-03-22T05:51:31;4.80;99.90
9383;DHT22;4731;49.708;10.816;2023-03-22T05:53:58;5.10;99.90
9383;DHT22;4731;49.708;10.816;2023-03-22T05:56:25;5.30;99.90
9383;DHT22;4731;49.708;10.816;2023-03-22T05:58:53;5.40;99.90
9383;DHT22;4731;49.708;10.816;2023-03-22T06:01:19;5.50;99.90
9383;DHT22;4731;49.708;10.816;2023-03-22T06:03:47;5.50;99.90
9383;DHT22;4731;49.708;10.816;2023-03-22T06:06:14;5.50;99.90
9383;DHT22;4731;49.708;10.816;2023-03-22T06:08:41;5.90;99.90
9383;DHT22;4731;49.708;10.816;2023-03-22T06:11:08;6.50;99.90
9383;DHT22;4731;49.708;10.816;2023-03-22T06:13:35;7.30;99.90
9383;DHT22;4731;49.708;10.816;2023-03-22T06:16:05;8.10;99.90
9383;DHT22;4731;49.708;10.816;2023-03-22T06:18:31;8.60;99.90
9383;DHT22;4731;49.708;10.816;2023-03-22T06:20:58;8.80;99.90
9383;DHT22;4731;49.708;10.816;2023-03-22T06:23:25;9.10;99.90
9383;DHT22;4731;49.708;10.816;2023-03-22T06:25:52;9.50;99.90
9383;DHT22;4731;49.708;10.816;2023-03-22T06:28:18;10.10;99.90
9383;DHT22;4731;49.708;10.816;2023-03-22T06:30:45;10.70;99.90
9383;DHT22;4731;49.708;10.816;2023-03-22T06:33:13;11.30;99.90
9383;DHT22;4731;49.708;10.816;2023-03-22T06:35:40;12.10;99.90
9383;DHT22;4731;49.708;10.816;2023-03-22T06:38:06;12.60;99.90
9383;DHT22;4731;49.708;10.816;2023-03-22T06:40:33;12.60;99.90
9383;DHT22;4731;49.708;10.816;2023-03-22T06:43:00;12.30;99.90
9383;DHT22;4731;49.708;10.816;2023-03-22T06:45:28;12.30;99.90
9383;DHT22;4731;49.708;10.816;2023-03-22T06:47:58;12.90;99.90
9383;DHT22;4731;49.708;10.816;2023-03-22T06:50:26;14.20;99.90
9383;DHT22;4731;49.708;10.816;2023-03-22T06:52:53;15.30;99.90
9383;DHT22;4731;49.708;10.816;2023-03-22T06:55:19;15.80;99.90
9383;DHT22;4731;49.708;10.816;2023-03-22T06:57:47;16.20;99.90
9383;DHT22;4731;49.708;10.816;2023-03-22T07:00:15;17.00;99.90
9383;DHT22;4731;49.708;10.816;2023-03-22T07:02:42;18.20;99.90
9383;DHT22;4731;49.708;10.816;2023-03-22T07:05:08;19.10;99.90
9383;DHT22;4731;49.708;10.816;2023-03-22T07:07:37;19.50;99.90
9383;DHT22;4731;49.708;10.816;2023-03-22T07:10:04;20.50;99.90
9383;DHT22;4731;49.708;10.816;2023-03-22T07:12:32;21.40;99.90
9383;DHT22;4731;49.708;10.816;2023-03-22T07:14:59;22.10;99.90
9383;DHT22;4731;49.708;10.816;2023-03-22T07:17:25;22.60;99.90
9383;DHT22;4731;49.708;10.816;2023-03-22T07:19:53;23.20;99.90
9383;DHT22;4731;49.708;10.816;2023-03-22T07:22:20;24.70;99.90
9383;DHT22;4731;49.708;10.816;2023-03-22T07:24:48;24.20;99.90
9383;DHT22;4731;49.708;10.816;2023-03-22T07:27:15;24.10;99.90
9383;DHT22;4731;49.708;10.816;2023-03-22T07:29:41;24.70;99.90
9383;DHT22;4731;49.708;10.816;2023-03-22T07:32:08;24.60;99.90
9383;DHT22;4731;49.708;10.816;2023-03-22T07:34:35;25.80;99.90
9383;DHT22;4731;49.708;10.816;2023-03-22T07:37:02;24.80;99.90
9383;DHT22;4731;49.708;10.816;2023-03-22T07:39:30;25.90;99.90
9383;DHT22;4731;49.708;10.816;2023-03-22T07:41:58;25.60;99.90
9383;DHT22;4731;49.708;10.816;2023-03-22T07:44:25;28.20;99.90
9383;DHT22;4731;49.708;10.816;2023-03-22T07:46:52;26.00;99.90
9383;DHT22;4731;49.708;10.816;2023-03-22T07:49:18;26.00;99.90
9383;DHT22;4731;49.708;10.816;2023-03-22T07:51:45;26.30;99.90
9383;DHT22;4731;49.708;10.816;2023-03-22T07:54:12;26.40;99.90
9383;DHT22;4731;49.708;10.816;2023-03-22T07:56:39;26.50;99.90
9383;DHT22;4731;49.708;10.816;2023-03-22T07:59:09;27.50;99.90
9383;DHT22;4731;49.708;10.816;2023-03-22T08:01:37;27.10;99.90
9383;DHT22;4731;49.708;10.816;2023-03-22T08:04:05;26.50;99.30
9383;DHT22;4731;49.708;10.816;2023-03-22T08:06:32;25.80;99.90
9383;DHT22;4731;49.708;10.816;2023-03-22T08:09:01;24.50;99.90
9383;DHT22;4731;49.708;10.816;2023-03-22T08:11:28;23.40;99.90
9383;DHT22;4731;49.708;10.816;2023-03-22T08:13:55;22.90;99.90
9383;DHT22;4731;49.708;10.816;2023-03-22T08:16:23;21.30;99.90
9383;DHT22;4731;49.708;10.816;2023-03-22T08:18:49;22.10;99.90
9383;DHT22;4731;49.708;10.816;2023-03-22T08:21:16;20.90;99.90
9383;DHT22;4731;49.708;10.816;2023-03-22T08:23:43;20.60;99.90
9383;DHT22;4731;49.708;10.816;2023-03-22T08:26:10;19.40;99.90
9383;DHT22;4731;49.708;10.816;2023-03-22T08:28:37;21.20;99.90
9383;DHT22;4731;49.708;10.816;2023-03-22T08:31:10;19.60;99.90
9383;DHT22;4731;49.708;10.816;2023-03-22T08:33:39;21.40;99.90
9383;DHT22;4731;49.708;10.816;2023-03-22T08:36:11;21.40;99.90
9383;DHT22;4731;49.708;10.816;2023-03-22T08:38:39;21.60;99.90
9383;DHT22;4731;49.708;10.816;2023-03-22T08:41:06;22.40;99.90
9383;DHT22;4731;49.708;10.816;2023-03-22T08:43:33;24.40;99.90
9383;DHT22;4731;49.708;10.816;2023-03-22T08:46:00;25.30;99.90
9383;DHT22;4731;49.708;10.816;2023-03-22T08:48:27;26.50;99.90
9383;DHT22;4731;49.708;10.816;2023-03-22T08:50:56;27.00;99.90
9383;DHT22;4731;49.708;10.816;2023-03-22T08:53:23;28.00;99.90
9383;DHT22;4731;49.708;10.816;2023-03-22T08:55:49;28.40;98.10
9383;DHT22;4731;49.708;10.816;2023-03-22T08:58:16;28.00;98.40
9383;DHT22;4731;49.708;10.816;2023-03-22T09:00:44;29.10;96.30
9383;DHT22;4731;49.708;10.816;2023-03-22T09:03:11;27.50;95.80
9383;DHT22;4731;49.708;10.816;2023-03-22T09:05:38;26.30;99.50
9383;DHT22;4731;49.708;10.816;2023-03-22T09:08:06;27.00;97.00
9383;DHT22;4731;49.708;10.816;2023-03-22T09:10:33;26.80;96.10
9383;DHT22;4731;49.708;10.816;2023-03-22T09:13:00;25.60;98.50
9383;DHT22;4731;49.708;10.816;2023-03-22T09:15:27;26.20;99.60
9383;DHT22;4731;49.708;10.816;2023-03-22T09:17:53;25.70;98.20
9383;DHT22;4731;49.708;10.816;2023-03-22T09:20:20;25.00;98.50
9383;DHT22;4731;49.708;10.816;2023-03-22T09:22:49;25.00;98.20
9383;DHT22;4731;49.708;10.816;2023-03-22T09:25:17;25.50;98.30
9383;DHT22;4731;49.708;10.816;2023-03-22T09:27:45;26.20;97.70
9383;DHT22;4731;49.708;10.816;2023-03-22T09:30:12;25.50;97.50
9383;DHT22;4731;49.708;10.816;2023-03-22T09:32:39;25.60;97.10
9383;DHT22;4731;49.708;10.816;2023-03-22T09:35:06;26.30;97.80
9383;DHT22;4731;49.708;10.816;2023-03-22T09:37:33;25.30;97.40
9383;DHT22;4731;49.708;10.816;2023-03-22T09:40:00;25.10;97.70
9383;DHT22;4731;49.708;10.816;2023-03-22T09:42:34;25.10;98.40
9383;DHT22;4731;49.708;10.816;2023-03-22T09:45:05;25.50;97.50
9383;DHT22;4731;49.708;10.816;2023-03-22T09:47:34;26.50;96.20
9383;DHT22;4731;49.708;10.816;2023-03-22T09:50:07;27.40;96.70
9383;DHT22;4731;49.708;10.816;2023-03-22T09:52:37;25.90;96.30
9383;DHT22;4731;49.708;10.816;2023-03-22T09:55:09;26.20;96.10
9383;DHT22;4731;49.708;10.816;2023-03-22T09:57:41;25.90;95.10
9383;DHT22;4731;49.708;10.816;2023-03-22T10:00:15;24.50;98.40
9383;DHT22;4731;49.708;10.816;2023-03-22T10:02:51;23.00;97.50
9383;DHT22;4731;49.708;10.816;2023-03-22T10:05:25;23.70;99.90
9383;DHT22;4731;49.708;10.816;2023-03-22T10:10:59;21.40;99.90
9383;DHT22;4731;49.708;10.816;2023-03-22T10:13:32;22.50;99.90
9383;DHT22;4731;49.708;10.816;2023-03-22T10:16:02;23.00;99.90
9383;DHT22;4731;49.708;10.816;2023-03-22T10:18:34;21.20;99.90
9383;DHT22;4731;49.708;10.816;2023-03-22T10:21:03;21.70;99.90
9383;DHT22;4731;49.708;10.816;2023-03-22T10:23:34;21.50;99.90
9383;DHT22;4731;49.708;10.816;2023-03-22T10:26:03;20.50;99.90
9383;DHT22;4731;49.708;10.816;2023-03-22T10:28:37;20.30;99.90
9383;DHT22;4731;49.708;10.816;2023-03-22T10:31:05;21.60;99.90
9383;DHT22;4731;49.708;10.816;2023-03-22T10:33:38;19.20;99.90
9383;DHT22;4731;49.708;10.816;2023-03-22T10:36:08;19.70;99.90
9383;DHT22;4731;49.708;10.816;2023-03-22T10:38:44;20.80;99.90
9383;DHT22;4731;49.708;10.816;2023-03-22T10:41:13;22.50;99.90
9383;DHT22;4731;49.708;10.816;2023-03-22T10:43:46;23.30;99.90
9383;DHT22;4731;49.708;10.816;2023-03-22T10:46:17;23.30;99.90
9383;DHT22;4731;49.708;10.816;2023-03-22T10:48:45;24.20;99.90
9383;DHT22;4731;49.708;10.816;2023-03-22T10:51:19;24.90;99.50
9383;DHT22;4731;49.708;10.816;2023-03-22T10:53:51;24.80;97.00
9383;DHT22;4731;49.708;10.816;2023-03-22T10:56:20;25.20;96.90
9383;DHT22;4731;49.708;10.816;2023-03-22T10:58:49;25.50;97.30
9383;DHT22;4731;49.708;10.816;2023-03-22T11:01:26;26.20;94.10
9383;DHT22;4731;49.708;10.816;2023-03-22T11:03:56;25.90;95.10
9383;DHT22;4731;49.708;10.816;2023-03-22T11:06:25;29.40;94.30
9383;DHT22;4731;49.708;10.816;2023-03-22T11:08:57;27.00;92.20
9383;DHT22;4731;49.708;10.816;2023-03-22T11:11:27;26.30;92.10
9383;DHT22;4731;49.708;10.816;2023-03-22T11:14:00;26.40;92.60
9383;DHT22;4731;49.708;10.816;2023-03-22T11:16:28;25.60;93.70
9383;DHT22;4731;49.708;10.816;2023-03-22T11:18:56;26.00;93.40
9383;DHT22;4731;49.708;10.816;2023-03-22T11:21:26;26.90;93.30
9383;DHT22;4731;49.708;10.816;2023-03-22T11:23:57;28.10;90.80
9383;DHT22;4731;49.708;10.816;2023-03-22T11:26:29;27.30;91.10
9383;DHT22;4731;49.708;10.816;2023-03-22T11:29:10;27.70;90.70
9383;DHT22;4731;49.708;10.816;2023-03-22T11:31:55;28.50;90.00
9383;DHT22;4731;49.708;10.816;2023-03-22T11:34:24;27.70;89.00
9383;DHT22;4731;49.708;10.816;2023-03-22T11:36:52;27.20;90.90
9383;DHT22;4731;49.708;10.816;2023-03-22T11:39:22;27.00;89.40
9383;DHT22;4731;49.708;10.816;2023-03-22T11:41:50;28.30;86.70
9383;DHT22;4731;49.708;10.816;2023-03-22T11:44:43;27.80;86.40
9383;DHT22;4731;49.708;10.816;2023-03-22T11:47:12;25.30;90.00
9383;DHT22;4731;49.708;10.816;2023-03-22T11:49:43;24.40;92.40
9383;DHT22;4731;49.708;10.816;2023-03-22T11:52:15;24.20;93.30
9383;DHT22;4731;49.708;10.816;2023-03-22T11:54:43;23.40;94.50
9383;DHT22;4731;49.708;10.816;2023-03-22T11:57:14;22.90;95.40
9383;DHT22;4731;49.708;10.816;2023-03-22T11:59:47;22.20;98.00
9383;DHT22;4731;49.708;10.816;2023-03-22T12:02:19;21.90;99.90
9383;DHT22;4731;49.708;10.816;2023-03-22T12:04:50;22.30;99.90
9383;DHT22;4731;49.708;10.816;2023-03-22T12:07:19;22.90;99.90
9383;DHT22;4731;49.708;10.816;2023-03-22T12:09:51;22.50;99.90
9383;DHT22;4731;49.708;10.816;2023-03-22T12:12:24;24.10;99.10
9383;DHT22;4731;49.708;10.816;2023-03-22T12:14:58;24.20;96.80
9383;DHT22;4731;49.708;10.816;2023-03-22T12:17:30;24.90;95.10
9383;DHT22;4731;49.708;10.816;2023-03-22T12:20:04;24.90;95.60
9383;DHT22;4731;49.708;10.816;2023-03-22T12:22:34;26.50;91.90
9383;DHT22;4731;49.708;10.816;2023-03-22T12:25:10;25.30;91.50
9383;DHT22;4731;49.708;10.816;2023-03-22T12:27:39;22.80;94.90
9383;DHT22;4731;49.708;10.816;2023-03-22T12:30:12;22.10;97.40
9383;DHT22;4731;49.708;10.816;2023-03-22T12:32:41;21.80;98.50
9383;DHT22;4731;49.708;10.816;2023-03-22T12:35:14;21.60;99.90
9383;DHT22;4731;49.708;10.816;2023-03-22T12:37:45;20.90;99.90
9383;DHT22;4731;49.708;10.816;2023-03-22T12:40:22;20.40;99.90
9383;DHT22;4731;49.708;10.816;2023-03-22T12:42:57;21.20;99.90
9383;DHT22;4731;49.708;10.816;2023-03-22T12:45:29;23.60;99.90
9383;DHT22;4731;49.708;10.816;2023-03-22T12:48:03;25.40;95.90
9383;DHT22;4731;49.708;10.816;2023-03-22T12:50:34;24.20;95.30
9383;DHT22;4731;49.708;10.816;2023-03-22T12:53:03;23.40;96.60
9383;DHT22;4731;49.708;10.816;2023-03-22T12:55:33;21.90;98.20
9383;DHT22;4731;49.708;10.816;2023-03-22T12:58:04;21.20;99.90
9383;DHT22;4731;49.708;10.816;2023-03-22T13:00:37;24.30;99.90
9383;DHT22;4731;49.708;10.816;2023-03-22T13:03:07;23.80;99.90
9383;DHT22;4731;49.708;10.816;2023-03-22T13:05:45;22.20;97.20
9383;DHT22;4731;49.708;10.816;2023-03-22T13:08:18;22.30;97.90
9383;DHT22;4731;49.708;10.816;2023-03-22T13:11:00;23.00;98.60
9383;DHT22;4731;49.708;10.816;2023-03-22T13:13:43;21.30;99.90
9383;DHT22;4731;49.708;10.816;2023-03-22T13:16:17;21.40;99.90
9383;DHT22;4731;49.708;10.816;2023-03-22T13:19:01;22.20;99.20
9383;DHT22;4731;49.708;10.816;2023-03-22T13:21:30;22.80;97.90
9383;DHT22;4731;49.708;10.816;2023-03-22T13:23:59;22.10;94.80
9383;DHT22;4731;49.708;10.816;2023-03-22T13:26:32;21.30;98.10
9383;DHT22;4731;49.708;10.816;2023-03-22T13:29:08;21.70;98.70
9383;DHT22;4731;49.708;10.816;2023-03-22T13:31:40;21.60;97.00
9383;DHT22;4731;49.708;10.816;2023-03-22T13:34:16;22.30;99.20
9383;DHT22;4731;49.708;10.816;2023-03-22T13:36:52;21.20;97.80
9383;DHT22;4731;49.708;10.816;2023-03-22T13:39:20;21.00;97.60
9383;DHT22;4731;49.708;10.816;2023-03-22T13:42:01;20.70;98.30
9383;DHT22;4731;49.708;10.816;2023-03-22T13:44:35;20.20;99.90
9383;DHT22;4731;49.708;10.816;2023-03-22T13:47:06;22.60;99.90
9383;DHT22;4731;49.708;10.816;2023-03-22T13:49:51;19.20;99.90
9383;DHT22;4731;49.708;10.816;2023-03-22T13:52:25;18.70;99.90
9383;DHT22;4731;49.708;10.816;2023-03-22T13:54:55;18.70;99.90
9383;DHT22;4731;49.708;10.816;2023-03-22T13:57:45;18.80;99.90
9383;DHT22;4731;49.708;10.816;2023-03-22T14:00:33;19.10;99.90
9383;DHT22;4731;49.708;10.816;2023-03-22T14:03:06;19.30;99.90
9383;DHT22;4731;49.708;10.816;2023-03-22T14:05:37;19.10;99.90
9383;DHT22;4731;49.708;10.816;2023-03-22T14:08:05;19.10;99.90
9383;DHT22;4731;49.708;10.816;2023-03-22T14:10:39;19.10;99.90
9383;DHT22;4731;49.708;10.816;2023-03-22T14:13:13;19.10;99.90
9383;DHT22;4731;49.708;10.816;2023-03-22T14:15:47;18.90;99.90
9383;DHT22;4731;49.708;10.816;2023-03-22T14:18:19;18.60;99.90
9383;DHT22;4731;49.708;10.816;2023-03-22T14:20:52;21.30;99.90
9383;DHT22;4731;49.708;10.816;2023-03-22T14:23:22;18.30;99.90
9383;DHT22;4731;49.708;10.816;2023-03-22T14:25:53;18.40;99.90
9383;DHT22;4731;49.708;10.816;2023-03-22T14:28:32;20.10;99.90
9383;DHT22;4731;49.708;10.816;2023-03-22T14:30:59;21.00;99.90
9383;DHT22;4731;49.708;10.816;2023-03-22T14:33:29;18.70;99.90
9383;DHT22;4731;49.708;10.816;2023-03-22T14:36:01;21.20;99.90
9383;DHT22;4731;49.708;10.816;2023-03-22T14:38:31;18.40;99.90
9383;DHT22;4731;49.708;10.816;2023-03-22T14:41:09;18.40;99.90
9383;DHT22;4731;49.708;10.816;2023-03-22T14:43:36;18.40;99.90
9383;DHT22;4731;49.708;10.816;2023-03-22T14:46:11;18.20;99.90
9383;DHT22;4731;49.708;10.816;2023-03-22T14:48:41;18.00;99.90
9383;DHT22;4731;49.708;10.816;2023-03-22T14:51:15;19.70;99.90
9383;DHT22;4731;49.708;10.816;2023-03-22T14:53:44;18.10;99.90
9383;DHT22;4731;49.708;10.816;2023-03-22T14:56:16;18.20;99.90
9383;DHT22;4731;49.708;10.816;2023-03-22T14:58:46;18.10;99.90
9383;DHT22;4731;49.708;10.816;2023-03-22T15:01:15;18.10;99.90
9383;DHT22;4731;49.708;10.816;2023-03-22T15:03:47;18.10;99.90
9383;DHT22;4731;49.708;10.816;2023-03-22T15:06:15;18.10;99.90
9383;DHT22;4731;49.708;10.816;2023-03-22T15:08:44;20.70;99.90
9383;DHT22;4731;49.708;10.816;2023-03-22T15:11:12;18.10;99.90
9383;DHT22;4731;49.708;10.816;2023-03-22T15:13:40;20.30;99.90
9383;DHT22;4731;49.708;10.816;2023-03-22T15:16:09;18.20;99.90
9383;DHT22;4731;49.708;10.816;2023-03-22T15:18:39;18.20;99.90
9383;DHT22;4731;49.708;10.816;2023-03-22T15:21:09;18.40;99.90
9383;DHT22;4731;49.708;10.816;2023-03-22T15:23:38;18.40;99.90
9383;DHT22;4731;49.708;10.816;2023-03-22T15:26:14;18.40;99.90
9383;DHT22;4731;49.708;10.816;2023-03-22T15:28:44;18.30;99.90
9383;DHT22;4731;49.708;10.816;2023-03-22T15:31:21;18.10;99.90
9383;DHT22;4731;49.708;10.816;2023-03-22T15:33:51;18.00;99.90
9383;DHT22;4731;49.708;10.816;2023-03-22T15:36:21;17.90;99.90
9383;DHT22;4731;49.708;10.816;2023-03-22T15:38:50;17.80;99.90
9383;DHT22;4731;49.708;10.816;2023-03-22T15:41:23;16.30;99.90
9383;DHT22;4731;49.708;10.816;2023-03-22T15:44:13;17.80;99.90
9383;DHT22;4731;49.708;10.816;2023-03-22T15:46:51;17.70;99.90
9383;DHT22;4731;49.708;10.816;2023-03-22T15:49:21;17.80;99.90
9383;DHT22;4731;49.708;10.816;2023-03-22T15:51:52;18.00;99.90
9383;DHT22;4731;49.708;10.816;2023-03-22T15:54:21;18.10;99.90
9383;DHT22;4731;49.708;10.816;2023-03-22T15:56:54;18.20;99.90
9383;DHT22;4731;49.708;10.816;2023-03-22T15:59:24;18.10;99.90
9383;DHT22;4731;49.708;10.816;2023-03-22T16:01:55;19.50;99.90
9383;DHT22;4731;49.708;10.816;2023-03-22T16:04:29;17.90;99.90
9383;DHT22;4731;49.708;10.816;2023-03-22T16:06:58;17.90;99.90
9383;DHT22;4731;49.708;10.816;2023-03-22T16:09:26;18.70;99.90
9383;DHT22;4731;49.708;10.816;2023-03-22T16:11:53;17.50;99.90
9383;DHT22;4731;49.708;10.816;2023-03-22T16:14:20;18.00;99.90
9383;DHT22;4731;49.708;10.816;2023-03-22T16:16:47;17.50;99.90
9383;DHT22;4731;49.708;10.816;2023-03-22T16:19:14;17.50;99.90
9383;DHT22;4731;49.708;10.816;2023-03-22T16:21:41;17.40;99.90